createdAt,value
2022-12-25T00:03:39.654Z,20.50
2022-12-25T00:08:44.789Z,21.35
2022-12-25T00:13:52.367Z,21.15
2022-12-25T00:18:59.210Z,22.48
2022-12-25T00:24:04.525Z,22.75
2022-12-25T00:29:15.218Z,25.30
2022-12-25T00:34:19.919Z,25.10
2022-12-25T00:39:24.690Z,24.27
2022-12-25T00:44:32.127Z,27.90
2022-12-25T00:49:36.978Z,25.98
2022-12-25T00:54:41.920Z,24.70
2022-12-25T00:59:49.422Z,24.52
2022-12-25T01:04:54.912Z,28.88
2022-12-25T01:10:11.948Z,28.45
2022-12-25T01:15:19.650Z,29.73
2022-12-25T01:20:24.476Z,31.40
2022-12-25T01:25:29.211Z,32.75
2022-12-25T01:30:36.686Z,28.67
2022-12-25T01:35:42.270Z,27.92
2022-12-25T01:40:47.127Z,24.98
2022-12-25T01:45:55.592Z,25.05
2022-12-25T01:51:02.027Z,26.45
2022-12-25T01:56:09.747Z,25.88
2022-12-25T02:01:17.278Z,24.75
2022-12-25T02:06:22.332Z,26.88
2022-12-25T02:11:39.393Z,24.23
2022-12-25T02:16:56.803Z,25.92
2022-12-25T02:22:10.116Z,24.20
2022-12-25T02:27:21.436Z,24.63
2022-12-25T02:32:31.978Z,27.58
2022-12-25T02:37:41.135Z,28.40
2022-12-25T02:43:00.948Z,27.52
2022-12-25T02:48:22.036Z,26.97
2022-12-25T02:53:39.041Z,26.33
2022-12-25T02:58:57.678Z,24.77
2022-12-25T03:04:20.146Z,25.98
2022-12-25T03:09:38.047Z,31.45
2022-12-25T03:14:55.178Z,26.77
2022-12-25T03:20:15.151Z,37.10
2022-12-25T03:25:32.899Z,64.50
2022-12-25T03:30:55.397Z,87.05
2022-12-25T03:36:07.487Z,69.68
2022-12-25T03:41:27.768Z,45.67
2022-12-25T03:46:47.822Z,50.45
2022-12-25T03:52:09.592Z,75.43
2022-12-25T03:57:27.178Z,53.00
2022-12-25T04:02:44.416Z,47.63
2022-12-25T04:08:04.174Z,52.65
2022-12-25T04:13:21.198Z,46.38
2022-12-25T04:18:38.241Z,53.05
2022-12-25T04:24:03.478Z,64.75
2022-12-25T04:29:20.545Z,43.00
2022-12-25T04:34:37.612Z,63.92
2022-12-25T04:39:44.976Z,75.75
2022-12-25T04:44:49.663Z,143.70
2022-12-25T04:49:54.504Z,52.70
2022-12-25T04:55:01.893Z,42.10
2022-12-25T05:00:07.075Z,65.57
2022-12-25T05:05:12.016Z,72.50
2022-12-25T05:10:19.397Z,80.68
2022-12-25T05:15:24.134Z,75.75
2022-12-25T05:20:31.186Z,55.50
2022-12-25T05:25:41.319Z,66.68
2022-12-25T05:30:46.274Z,42.00
2022-12-25T05:35:51.013Z,32.97
2022-12-25T05:40:58.438Z,35.90
2022-12-25T05:46:07.013Z,43.83
2022-12-25T05:51:12.975Z,31.63
2022-12-25T05:56:20.449Z,29.52
2022-12-25T06:01:26.710Z,27.25
2022-12-25T06:06:31.530Z,32.00
2022-12-25T06:11:38.922Z,32.33
2022-12-25T06:16:43.727Z,29.83
2022-12-25T06:21:48.596Z,29.45
2022-12-25T06:26:55.980Z,31.48
2022-12-25T06:32:00.753Z,29.65
2022-12-25T06:37:05.635Z,28.55
2022-12-25T06:42:12.949Z,37.22
2022-12-25T06:47:17.741Z,35.53
2022-12-25T06:52:22.545Z,33.95
2022-12-25T06:57:29.915Z,33.80
2022-12-25T07:02:38.713Z,33.63
2022-12-25T07:07:43.709Z,32.10
2022-12-25T07:12:51.068Z,37.22
2022-12-25T07:17:55.875Z,38.85
2022-12-25T07:23:00.691Z,38.70
2022-12-25T07:28:08.367Z,44.78
2022-12-25T07:33:13.143Z,56.15
2022-12-25T07:38:18.080Z,46.10
2022-12-25T07:43:25.774Z,39.67
2022-12-25T07:48:31.035Z,36.78
2022-12-25T07:53:36.021Z,37.65
2022-12-25T07:58:43.752Z,43.75
2022-12-25T08:03:51.932Z,85.05
2022-12-25T08:08:56.895Z,93.47
2022-12-25T08:14:04.343Z,69.30
2022-12-25T08:19:09.127Z,54.13
2022-12-25T08:24:13.856Z,43.85
2022-12-25T08:29:21.233Z,32.28
2022-12-25T08:34:26.388Z,31.50
2022-12-25T08:39:31.181Z,29.88
2022-12-25T08:44:38.663Z,27.45
2022-12-25T08:49:45.741Z,102.38
2022-12-25T08:54:50.906Z,50.50
2022-12-25T08:59:58.447Z,74.80
2022-12-25T09:05:03.191Z,40.92
2022-12-25T09:10:08.503Z,33.60
2022-12-25T09:15:16.522Z,37.67
2022-12-25T09:20:21.429Z,34.58
2022-12-25T09:25:26.405Z,34.67
2022-12-25T09:30:36.159Z,48.83
2022-12-25T09:35:41.031Z,134.35
2022-12-25T09:40:58.137Z,74.47
2022-12-25T09:46:07.353Z,32.28
2022-12-25T09:51:16.082Z,36.23
2022-12-25T09:56:21.657Z,31.38
2022-12-25T10:01:34.712Z,30.08
2022-12-25T10:06:46.159Z,30.48
2022-12-25T10:12:02.799Z,44.15
2022-12-25T10:17:28.546Z,71.75
2022-12-25T10:22:34.995Z,53.38
2022-12-25T10:27:41.941Z,39.15
2022-12-25T10:32:49.898Z,31.25
2022-12-25T10:37:56.977Z,24.48
2022-12-25T10:43:04.602Z,25.73
2022-12-25T10:48:17.014Z,20.60
2022-12-25T10:53:23.159Z,36.33
2022-12-25T10:58:28.248Z,27.65
2022-12-25T11:03:37.059Z,39.63
2022-12-25T11:08:42.083Z,19.80
2022-12-25T11:13:51.367Z,16.77
2022-12-25T11:18:59.095Z,19.57
2022-12-25T11:24:04.826Z,13.15
2022-12-25T11:29:17.830Z,14.30
2022-12-25T11:34:28.062Z,10.80
2022-12-25T11:39:34.507Z,15.65
2022-12-25T11:44:45.423Z,10.70
2022-12-25T11:49:59.984Z,8.70
2022-12-25T11:55:08.440Z,14.35
2022-12-25T12:00:16.486Z,10.20
2022-12-25T12:05:27.221Z,41.97
2022-12-25T12:10:38.624Z,6.93
2022-12-25T12:15:45.245Z,17.85
2022-12-25T12:21:00.223Z,7.72
2022-12-25T12:26:07.099Z,10.40
2022-12-25T12:31:12.364Z,12.77
2022-12-25T12:36:34.637Z,15.70
2022-12-25T12:41:45.325Z,13.25
2022-12-25T12:52:05.466Z,12.70
2022-12-25T12:57:24.588Z,12.68
2022-12-25T13:02:47.214Z,20.35
2022-12-25T13:08:01.217Z,41.35
2022-12-25T13:13:08.092Z,14.32
2022-12-25T13:18:14.451Z,15.68
2022-12-25T13:23:26.722Z,14.75
2022-12-25T13:28:32.359Z,18.63
2022-12-25T13:33:37.673Z,18.70
2022-12-25T13:38:49.204Z,14.98
2022-12-25T13:43:54.010Z,38.72
2022-12-25T13:49:01.083Z,14.43
2022-12-25T13:54:09.583Z,13.32
2022-12-25T13:59:16.778Z,15.75
2022-12-25T14:04:22.680Z,17.75
2022-12-25T14:09:30.194Z,19.55
2022-12-25T14:14:35.966Z,23.05
2022-12-25T14:19:40.765Z,26.45
2022-12-25T14:24:48.327Z,29.30
2022-12-25T14:29:54.701Z,39.70
2022-12-25T14:35:00.521Z,36.92
2022-12-25T14:40:09.296Z,47.33
2022-12-25T14:45:29.540Z,41.85
2022-12-25T14:50:35.387Z,59.22
2022-12-25T14:55:42.824Z,73.45
2022-12-25T15:00:47.620Z,61.72
2022-12-25T15:06:01.459Z,79.93
2022-12-25T15:11:08.964Z,72.75
2022-12-25T15:16:19.731Z,70.90
2022-12-25T15:21:26.424Z,61.15
2022-12-25T15:26:34.739Z,55.92
2022-12-25T15:31:40.554Z,58.40
2022-12-25T15:36:45.337Z,55.92
2022-12-25T15:42:05.035Z,71.38
2022-12-25T15:47:09.976Z,57.40
2022-12-25T15:52:16.849Z,91.30
2022-12-25T15:57:26.624Z,102.68
2022-12-25T16:02:31.484Z,90.45
2022-12-25T16:07:37.727Z,94.20
2022-12-25T16:12:45.153Z,51.67
2022-12-25T16:17:49.923Z,53.08
2022-12-25T16:22:54.744Z,57.63
2022-12-25T16:28:04.185Z,55.20
2022-12-25T16:33:09.540Z,84.17
2022-12-25T16:38:14.504Z,66.47
2022-12-25T16:43:24.073Z,45.25
2022-12-25T16:48:29.256Z,105.07
2022-12-25T16:53:40.288Z,41.92
2022-12-25T16:58:49.211Z,36.60
2022-12-25T17:03:54.379Z,42.85
2022-12-25T17:09:00.211Z,32.90
2022-12-25T17:14:08.020Z,43.00
2022-12-25T17:19:18.009Z,28.45
2022-12-25T17:24:22.873Z,25.05
2022-12-25T17:29:32.141Z,24.80
2022-12-25T17:34:37.075Z,34.03
2022-12-25T17:39:41.933Z,33.47
2022-12-25T17:44:49.529Z,29.63
2022-12-25T17:49:56.645Z,28.75
2022-12-25T17:55:01.553Z,27.70
2022-12-25T18:00:09.598Z,30.67
2022-12-25T18:05:14.611Z,33.47
2022-12-25T18:10:19.489Z,39.35
2022-12-25T18:15:26.986Z,28.73
2022-12-25T18:20:39.413Z,33.97
2022-12-25T18:25:45.040Z,32.40
2022-12-25T18:30:52.666Z,39.38
2022-12-25T18:36:00.326Z,35.78
2022-12-25T18:41:07.878Z,28.80
2022-12-25T18:46:15.804Z,26.83
2022-12-25T18:51:36.415Z,23.70
2022-12-25T18:56:42.241Z,20.95
2022-12-25T19:01:50.277Z,23.13
2022-12-25T19:06:55.271Z,23.10
2022-12-25T19:12:00.033Z,42.00
2022-12-25T19:17:10.763Z,24.58
2022-12-25T19:22:15.988Z,23.75
2022-12-25T19:27:20.923Z,23.20
2022-12-25T19:32:28.393Z,23.15
2022-12-25T19:37:33.244Z,23.15
2022-12-25T19:42:43.185Z,21.67
2022-12-25T19:47:50.656Z,24.45
2022-12-25T19:52:55.352Z,23.40
2022-12-25T19:58:00.396Z,27.38
2022-12-25T20:03:08.409Z,27.23
2022-12-25T20:08:13.742Z,26.20
2022-12-25T20:13:19.252Z,32.90
2022-12-25T20:18:28.975Z,29.30
2022-12-25T20:23:34.212Z,35.88
2022-12-25T20:28:46.917Z,35.17
2022-12-25T20:33:54.406Z,28.50
2022-12-25T20:38:59.112Z,28.73
2022-12-25T20:44:06.750Z,26.90
2022-12-25T20:49:16.252Z,26.60
2022-12-25T20:54:24.228Z,25.83
2022-12-25T20:59:35.179Z,23.63
2022-12-25T21:04:57.146Z,21.88
2022-12-25T21:10:04.683Z,23.27
2022-12-25T21:15:15.177Z,20.35
2022-12-25T21:20:20.582Z,21.83
2022-12-25T21:25:28.008Z,20.70
2022-12-25T21:30:32.919Z,17.40
2022-12-25T21:35:39.250Z,23.23
2022-12-25T21:40:46.913Z,24.13
2022-12-25T21:45:52.065Z,20.25
2022-12-25T21:51:09.183Z,22.70
2022-12-25T21:56:17.560Z,23.42
2022-12-25T22:01:22.506Z,30.08
2022-12-25T22:06:46.161Z,31.15
2022-12-25T22:12:05.909Z,28.23
2022-12-25T22:17:24.786Z,21.42
2022-12-25T22:22:30.935Z,20.52
2022-12-25T22:27:39.729Z,23.20
2022-12-25T22:32:47.122Z,23.17
2022-12-25T22:37:54.275Z,22.17
2022-12-25T22:43:01.769Z,24.08
2022-12-25T22:48:06.776Z,24.42
2022-12-25T22:53:11.874Z,24.55
2022-12-25T22:58:25.585Z,24.35
2022-12-25T23:03:46.122Z,24.83
2022-12-25T23:08:51.010Z,23.88
2022-12-25T23:14:25.710Z,24.33
2022-12-25T23:19:42.855Z,25.80
2022-12-25T23:24:59.859Z,22.88
2022-12-25T23:30:07.785Z,22.88
2022-12-25T23:35:13.141Z,23.50
2022-12-25T23:40:18.167Z,20.38
2022-12-25T23:45:25.603Z,22.17
2022-12-25T23:50:30.419Z,19.25
2022-12-25T23:55:42.442Z,21.58
